Time;durP1;ratioP1;P1;durP2;ratioP2;P2;SDS_P1;SDS_P2;PMS_P1;PMS_P2;Temp;Humidity;BMP_temperature;BMP_pressure;BME280_temperature;BME280_humidity;BME280_pressure;Samples;Min_cycle;Max_cycle;Signal;HPM_P1;HPM_P2
2023/10/31 00:02:15;;;;;;;28.67;3.35;;;;;;;12.45;100.00;100574.25;5074890;28;20171;-74
2023/10/31 00:04:40;;;;;;;4.45;4.05;;;;;;;12.48;100.00;100579.50;5067336;28;20115;-75
2023/10/31 00:10:28;;;;;;;3.42;3.13;;;;;;;12.12;100.00;100570.00;5054732;28;20044;-75
2023/10/31 00:13:39;;;;;;;10.30;5.95;;;;;;;12.89;100.00;100681.09;5054660;28;20041;-73
2023/10/31 00:16:05;;;;;;;4.70;3.13;;;;;;;12.49;100.00;100604.06;5054193;28;20469;-73
2023/10/31 00:18:30;;;;;;;6.65;5.25;;;;;;;12.76;100.00;100645.16;5036223;28;20029;-75
2023/10/31 00:20:56;;;;;;;9.50;6.30;;;;;;;12.95;100.00;100672.31;5043619;28;20053;-73
2023/10/31 00:23:22;;;;;;;8.15;7.35;;;;;;;12.90;100.00;100677.59;5034457;28;20448;-73
2023/10/31 00:25:48;;;;;;;5.82;4.85;;;;;;;12.57;100.00;100652.28;5033833;28;20448;-73
2023/10/31 00:28:14;;;;;;;3.83;3.53;;;;;;;11.89;100.00;100560.44;5033166;28;20489;-73
2023/10/31 00:34:01;;;;;;;7.78;5.70;;;;;;;12.20;100.00;100555.97;5054824;28;20064;-75
2023/10/31 00:36:28;;;;;;;3.28;2.97;;;;;;;11.95;100.00;100546.41;5054974;28;20033;-75
2023/10/31 00:39:01;;;;;;;7.03;3.20;;;;;;;11.79;100.00;100572.69;5046075;28;20107;-74
2023/10/31 00:41:28;;;;;;;;;;;;;;;12.38;100.00;100665.50;5054715;28;20116;-73
2023/10/31 00:43:53;;;;;;;5.65;4.03;;;;;;;11.92;100.00;100589.38;5053698;28;19922;-74
2023/10/31 00:46:19;;;;;;;4.10;3.70;;;;;;;11.98;100.00;100662.97;5053912;28;20087;-74
2023/10/31 00:48:44;;;;;;;5.70;4.40;;;;;;;11.62;100.00;100546.47;5053394;28;20029;-74
2023/10/31 00:54:31;;;;;;;5.53;4.88;;;;;;;12.52;100.00;100654.91;5053908;28;20120;-74
2023/10/31 00:56:57;;;;;;;7.18;4.78;;;;;;;11.78;100.00;100543.81;5036570;28;20108;-74
2023/10/31 00:59:23;;;;;;;3.13;2.83;;;;;;;12.09;100.00;100628.78;5041369;28;20025;-73
2023/10/31 01:01:49;;;;;;;5.60;5.10;;;;;;;11.55;100.00;100528.09;5053491;28;20060;-74
2023/10/31 01:07:36;;;;;;;9.13;5.47;;;;;;;11.62;100.00;100521.94;5045630;28;20183;-73
2023/10/31 01:10:02;;;;;;;4.45;3.80;;;;;;;11.44;100.00;100512.34;5031673;28;20494;-74
2023/10/31 01:12:29;;;;;;;5.22;3.85;;;;;;;12.09;100.00;100636.66;5033745;28;20040;-72
2023/10/31 01:18:16;;;;;;;3.67;2.67;;;;;;;11.60;100.00;100563.13;5033573;28;20039;-73
2023/10/31 01:20:41;;;;;;;5.93;3.65;;;;;;;12.19;100.00;100629.63;5023616;28;20133;-73
2023/10/31 01:23:07;;;;;;;2.42;2.05;;;;;;;12.25;100.00;100634.88;5053217;28;20395;-74
2023/10/31 01:25:32;;;;;;;7.07;3.95;;;;;;;11.58;100.00;100525.44;5052890;28;20498;-74
2023/10/31 01:27:58;;;;;;;3.53;3.22;;;;;;;12.07;100.00;100601.59;5052826;28;20041;-73
2023/10/31 01:30:24;;;;;;;8.82;6.30;;;;;;;12.22;100.00;100629.59;5053317;28;20041;-73
2023/10/31 01:32:49;;;;;;;2.95;2.70;;;;;;;11.50;100.00;100506.22;5053430;28;20079;-74
2023/10/31 01:38:59;;;;;;;2.85;2.58;;;;;;;12.17;100.00;100636.63;5073601;28;20074;-74
2023/10/31 01:41:24;;;;;;;7.03;2.85;;;;;;;11.92;100.00;100591.13;5072916;28;20036;-74
2023/10/31 01:43:51;;;;;;;7.30;4.55;;;;;;;12.13;100.00;100637.53;5072589;28;20046;-74
2023/10/31 01:46:16;;;;;;;3.13;2.90;;;;;;;11.49;100.00;100528.97;5072634;28;20049;-74
2023/10/31 01:52:04;;;;;;;1.08;1.05;;;;;;;12.04;100.00;100652.44;5072816;28;20102;-74
2023/10/31 01:57:51;;;;;;;13.40;12.80;;;;;;;11.54;100.00;100545.63;5072016;28;20044;-73
2023/10/31 02:00:17;;;;;;;12.18;6.50;;;;;;;11.51;100.00;100542.97;5072344;28;20033;-73
2023/10/31 02:02:42;;;;;;;4.20;3.35;;;;;;;11.86;100.00;100618.28;5073041;28;20473;-73
2023/10/31 02:05:09;;;;;;;5.38;4.82;;;;;;;11.65;100.00;100592.88;5072540;28;20468;-73
2023/10/31 02:07:35;;;;;;;4.75;4.25;;;;;;;12.08;100.00;100663.84;5072411;28;20044;-74
2023/10/31 02:10:00;;;;;;;2.30;2.10;;;;;;;11.45;100.00;100539.47;5072371;28;20101;-73
2023/10/31 02:12:33;;;;;;;2.70;2.50;;;;;;;11.59;100.00;100559.63;5072300;28;20036;-73
2023/10/31 02:15:09;;;;;;;2.70;2.50;;;;;;;12.12;100.00;100667.34;5072360;28;20445;-75
2023/10/31 02:17:34;;;;;;;5.03;4.43;;;;;;;11.84;100.00;100618.25;5051247;28;20025;-73
2023/10/31 02:20:00;;;;;;;6.97;5.70;;;;;;;11.90;100.00;100637.59;5050535;28;20033;-73
2023/10/31 02:25:46;;;;;;;2.38;2.17;;;;;;;11.67;100.00;100603.41;5031175;28;20100;-73
2023/10/31 02:28:12;;;;;;;3.13;2.47;;;;;;;12.06;100.00;100662.06;5030555;28;20053;-73
2023/10/31 02:30:37;;;;;;;5.40;4.90;;;;;;;11.94;100.00;100656.00;5032388;28;20048;-73
2023/10/31 02:33:03;;;;;;;2.30;2.10;;;;;;;11.63;100.00;100592.00;5032118;28;20132;-74
2023/10/31 02:38:50;;;;;;;4.15;3.83;;;;;;;11.30;100.00;100535.13;5033073;28;20056;-74
2023/10/31 02:41:16;;;;;;;3.90;2.00;;;;;;;11.18;100.00;100541.25;5032844;28;20432;-74
2023/10/31 02:43:41;;;;;;;33.72;7.15;;;;;;;11.36;100.00;100535.13;5032283;28;20450;-73
2023/10/31 02:46:07;;;;;;;2.67;2.17;;;;;;;11.47;100.00;100569.25;5031052;28;20061;-73
2023/10/31 02:51:54;;;;;;;3.67;2.85;;;;;;;11.75;100.00;100612.16;5032262;28;20052;-72
2023/10/31 02:54:20;;;;;;;10.35;3.75;;;;;;;11.97;100.00;100634.94;5032300;28;20411;-74
2023/10/31 02:56:45;;;;;;;4.60;4.05;;;;;;;11.82;100.00;100630.56;5033220;28;20033;-74
2023/10/31 02:59:11;;;;;;;0.30;0.30;;;;;;;11.11;100.00;100537.75;5030928;28;20053;-74
2023/10/31 03:04:58;;;;;;;4.22;3.85;;;;;;;11.38;100.00;100615.69;5032833;28;20417;-74
2023/10/31 03:10:50;;;;;;;0.20;0.20;;;;;;;11.34;100.00;100631.47;5030340;28;20120;-74
2023/10/31 03:16:38;;;;;;;4.18;3.75;;;;;;;10.86;100.00;100552.63;5031918;28;20128;-74
2023/10/31 03:19:04;;;;;;;2.22;2.03;;;;;;;10.88;100.00;100540.38;5013754;28;20042;-75
2023/10/31 03:21:30;;;;;;;0.20;0.20;;;;;;;11.55;100.00;100655.09;5032216;28;20034;-74
2023/10/31 03:23:56;;;;;;;2.65;2.42;;;;;;;11.37;100.00;100631.44;5031752;28;20108;-74
2023/10/31 03:26:21;;;;;;;4.25;3.92;;;;;;;11.57;100.00;100628.84;5032238;28;20468;-74
2023/10/31 03:28:47;;;;;;;6.43;2.20;;;;;;;11.66;100.00;100641.97;5031390;28;20037;-75
2023/10/31 03:31:14;;;;;;;2.42;1.98;;;;;;;11.72;100.00;100652.47;5032716;28;20498;-73
2023/10/31 03:37:01;;;;;;;5.78;3.67;;;;;;;10.90;100.00;100553.50;5035607;28;20052;-75
2023/10/31 03:42:49;;;;;;;13.13;6.18;;;;;;;11.31;100.00;100647.22;5039303;28;20409;-75
2023/10/31 03:48:36;;;;;;;5.38;3.13;;;;;;;10.66;100.00;100523.75;5035667;28;20111;-73
2023/10/31 03:54:22;;;;;;;5.97;3.85;;;;;;;10.89;100.00;100564.91;5035082;28;20079;-74
2023/10/31 04:00:11;;;;;;;4.32;3.92;;;;;;;11.31;100.00;100655.13;5035612;28;20087;-73
2023/10/31 04:02:52;;;;;;;3.35;3.05;;;;;;;11.27;100.00;100638.47;5035239;28;20457;-74
2023/10/31 04:05:18;;;;;;;2.78;2.58;;;;;;;11.37;100.00;100647.22;5033722;28;20045;-74
2023/10/31 04:08:05;;;;;;;1.40;1.33;;;;;;;11.43;100.00;100646.34;5033173;28;20397;-74
2023/10/31 04:10:31;;;;;;;2.63;2.30;;;;;;;10.64;100.00;100517.63;5034545;28;20067;-74
2023/10/31 04:20:02;;;;;;;3.95;2.20;;;;;;;11.25;100.00;100642.81;5034646;28;20090;-73
2023/10/31 04:22:33;;;;;;;3.28;1.77;;;;;;;11.26;100.00;100651.56;5033431;28;20072;-73
2023/10/31 04:24:59;;;;;;;2.75;2.53;;;;;;;11.46;100.00;100646.34;5054511;28;20045;-75
2023/10/31 04:27:24;;;;;;;4.57;3.97;;;;;;;11.41;100.00;100639.34;5053764;28;20041;-73
2023/10/31 04:33:11;;;;;;;5.60;4.63;;;;;;;11.39;100.00;100627.06;5052973;28;20036;-74
2023/10/31 04:35:37;;;;;;;6.22;5.72;;;;;;;11.46;100.00;100631.44;5053951;28;20021;-75
2023/10/31 04:38:02;;;;;;;2.72;2.53;;;;;;;11.43;100.00;100631.47;5064024;28;20514;-73
2023/10/31 04:44:32;;;;;;;2.85;1.77;;;;;;;11.49;100.00;100625.31;5072103;28;20171;-72
2023/10/31 04:46:58;;;;;;;2.85;2.65;;;;;;;11.39;100.00;100598.19;5066032;28;20118;-73
2023/10/31 04:49:23;;;;;;;5.90;4.65;;;;;;;11.38;100.00;100584.16;5053359;28;20053;-73
2023/10/31 04:55:13;;;;;;;8.27;4.63;;;;;;;11.25;100.00;100564.03;5070186;28;20039;-72
2023/10/31 04:57:39;;;;;;;2.70;2.50;;;;;;;11.27;100.00;100566.66;5071574;28;20036;-73
2023/10/31 05:00:06;;;;;;;4.38;2.88;;;;;;;11.54;100.00;100602.53;5071977;28;20038;-73
2023/10/31 05:02:32;;;;;;;6.55;4.32;;;;;;;11.48;100.00;100594.69;5053303;28;20346;-74
2023/10/31 05:11:37;;;;;;;2.58;2.22;;;;;;;11.04;100.00;100516.75;5072859;28;20051;-74
2023/10/31 05:14:02;;;;;;;4.25;2.38;;;;;;;11.40;100.00;100616.56;5073000;28;20040;-73
2023/10/31 05:16:27;;;;;;;5.80;4.18;;;;;;;11.21;100.00;100604.28;5073116;28;20060;-74
2023/10/31 05:26:10;;;;;;;0.45;0.40;;;;;;;10.99;100.00;100541.25;5053406;28;20103;-73
2023/10/31 05:28:35;;;;;;;8.50;6.30;;;;;;;11.61;100.00;100615.69;5052075;28;20484;-73
2023/10/31 05:31:01;;;;;;;32.95;4.97;;;;;;;11.01;100.00;100495.78;5052421;28;20032;-73
2023/10/31 05:33:27;;;;;;;5.90;5.05;;;;;;;11.54;100.00;100585.03;5052590;28;20106;-73
2023/10/31 05:39:15;;;;;;;6.38;3.95;;;;;;;11.47;100.00;100612.19;5052616;28;20107;-73
2023/10/31 05:41:42;;;;;;;5.50;4.95;;;;;;;11.56;100.00;100612.16;5052276;28;20384;-73
2023/10/31 05:44:10;;;;;;;12.43;4.55;;;;;;;11.37;100.00;100579.78;5051923;28;20164;-74
2023/10/31 05:53:18;;;;;;;1.17;1.13;;;;;;;11.31;100.00;100501.00;5032789;28;20045;-74
2023/10/31 05:55:44;;;;;;;6.75;5.15;;;;;;;12.03;100.00;100603.38;5031689;28;20033;-73
2023/10/31 05:58:09;;;;;;;3.42;2.30;;;;;;;11.74;100.00;100597.25;5030808;28;20100;-73
2023/10/31 06:03:56;;;;;;;2.38;2.17;;;;;;;11.75;100.00;100571.00;5032329;28;20095;-74
2023/10/31 06:09:44;;;;;;;4.45;4.03;;;;;;;11.16;100.00;100479.97;5031989;28;20040;-75
2023/10/31 06:15:32;;;;;;;3.67;3.30;;;;;;;12.33;100.00;100585.72;5032257;28;20516;-75
2023/10/31 06:25:08;;;;;;;4.00;3.70;;;;;;;12.30;100.00;100563.81;5029807;28;20097;-74
2023/10/31 06:27:34;;;;;;;4.25;3.85;;;;;;;11.97;100.00;100471.03;5031825;28;20131;-74
2023/10/31 06:30:02;;;;;;;4.75;3.15;;;;;;;12.38;100.00;100502.34;5031231;28;20406;-73
2023/10/31 06:32:28;;;;;;;3.17;2.55;;;;;;;13.00;100.00;100578.31;5014652;28;20120;-74
2023/10/31 06:34:53;;;;;;;4.55;4.03;;;;;;;12.44;100.00;100472.50;5030698;28;20501;-74
2023/10/31 06:40:40;;;;;;;6.45;3.80;;;;;;;12.55;100.00;100438.19;5032018;28;20068;-75
2023/10/31 06:43:05;;;;;;;8.43;3.83;;;;;;;13.34;100.00;100567.53;5031521;28;20049;-78
2023/10/31 06:45:32;;;;;;;4.22;3.90;;;;;;;13.14;100.00;100512.34;5030232;28;20444;-76
2023/10/31 06:47:57;;;;;;;3.58;3.28;;;;;;;12.85;100.00;100451.13;5013183;28;20060;-77
2023/10/31 06:53:45;;;;;;;3.15;2.88;;;;;;;13.20;100.00;100481.50;5046333;28;20483;-77
2023/10/31 06:56:10;;;;;;;6.40;3.83;;;;;;;13.54;100.00;100512.00;5035979;28;20450;-79
2023/10/31 06:58:35;;;;;;;4.70;4.15;;;;;;;13.25;100.00;100455.13;5013478;28;20092;-78
2023/10/31 07:01:02;;;;;;;7.15;2.13;;;;;;;13.92;100.00;100556.38;5031670;28;20108;-77
2023/10/31 07:10:10;;;;;;;4.22;3.55;;;;;;;16.15;100.00;100550.22;5055568;28;20427;-75
2023/10/31 07:19:27;;;;;;;2.53;2.17;;;;;;;20.03;100.00;100517.84;5039124;28;20140;-75
2023/10/31 07:22:19;;;;;;;3.45;3.15;;;;;;;20.30;100.00;100535.50;5034904;28;20351;-75
2023/10/31 07:31:27;;;;;;;19.15;3.97;;;;;;;19.91;100.00;100542.28;5034921;28;20172;-76
2023/10/31 07:34:23;;;;;;;1.90;1.80;;;;;;;20.63;100.00;100533.38;5032777;28;20124;-74
2023/10/31 07:40:48;;;;;;;2.72;2.40;;;;;;;16.70;100.00;100530.47;5032918;28;20044;-74
2023/10/31 07:43:14;;;;;;;1.77;1.63;;;;;;;17.62;100.00;100524.66;5031179;28;20040;-74
2023/10/31 07:45:39;;;;;;;4.50;4.13;;;;;;;16.98;100.00;100439.72;5052241;28;20037;-76
2023/10/31 07:48:05;;;;;;;4.43;3.40;;;;;;;16.68;100.00;100472.22;5050594;28;20459;-76
2023/10/31 07:50:31;;;;;;;3.08;2.83;;;;;;;18.15;100.00;100416.06;5035358;28;20435;-75
2023/10/31 07:52:56;;;;;;;3.92;3.53;;;;;;;19.28;100.00;100485.06;5052682;28;20041;-75
2023/10/31 07:55:22;;;;;;;10.02;5.10;;;;;;;19.95;100.00;100490.63;5054499;28;20040;-75
2023/10/31 07:57:47;;;;;;;10.65;6.25;;;;;;;18.28;100.00;100397.94;5054254;28;20068;-75
2023/10/31 08:03:34;;;;;;;7.47;4.90;;;;;;;17.76;100.00;100399.53;5054490;28;20036;-75
2023/10/31 08:06:00;;;;;;;11.57;4.32;;;;;;;18.12;100.00;100479.88;5054090;28;20365;-76
2023/10/31 08:08:25;;;;;;;3.45;3.15;;;;;;;19.47;100.00;100378.81;5054348;28;20033;-76
2023/10/31 08:10:51;;;;;;;4.93;3.97;;;;;;;19.48;100.00;100474.59;5053876;28;20091;-75
2023/10/31 08:13:16;;;;;;;4.60;3.08;;;;;;;18.48;100.00;100368.09;5053646;28;20048;-75
2023/10/31 08:15:43;;;;;;;4.75;3.83;;;;;;;18.50;100.00;100454.81;5052740;28;20040;-75
2023/10/31 08:18:09;;;;;;;6.93;3.88;;;;;;;17.98;100.00;100360.84;5035530;28;20047;-75
2023/10/31 08:24:04;;;;;;;6.45;5.20;;;;;;;20.00;100.00;100451.38;5065473;28;20523;-75
2023/10/31 08:26:31;;;;;;;5.32;4.68;;;;;;;19.06;100.00;100439.69;5053954;28;20472;-75
2023/10/31 08:28:56;;;;;;;5.15;3.97;;;;;;;18.91;100.00;100431.31;5053614;28;20052;-75
2023/10/31 08:31:22;;;;;;;10.63;6.68;;;;;;;18.73;100.00;100342.41;5053633;28;20037;-75
2023/10/31 08:33:48;;;;;;;7.90;6.80;;;;;;;20.33;100.00;100424.31;5035117;28;20036;-76
2023/10/31 08:36:14;;;;;;;5.45;4.95;;;;;;;19.82;100.00;100330.44;5054125;28;20036;-75
2023/10/31 08:38:39;;;;;;;7.07;6.53;;;;;;;19.93;100.00;100422.38;5053963;28;20029;-77
2023/10/31 08:41:11;;;;;;;4.50;4.10;;;;;;;18.93;100.00;100319.59;5053691;28;20036;-78
2023/10/31 08:43:37;;;;;;;5.88;4.97;;;;;;;20.75;100.00;100385.34;5053040;28;20041;-77
2023/10/31 08:46:03;;;;;;;5.63;4.75;;;;;;;19.69;100.00;100406.41;5060514;28;20052;-76
2023/10/31 08:52:24;;;;;;;7.00;3.67;;;;;;;20.63;100.00;100398.25;5055950;28;20396;-77
2023/10/31 08:58:58;;;;;;;2.97;2.30;;;;;;;20.23;100.00;100383.00;5073229;28;20082;-75
2023/10/31 09:01:24;;;;;;;7.50;3.78;;;;;;;20.17;100.00;100380.56;5072809;28;20476;-76
2023/10/31 09:03:50;;;;;;;5.60;4.35;;;;;;;20.19;100.00;100344.06;5072817;28;20051;-78
2023/10/31 09:06:15;;;;;;;4.80;3.00;;;;;;;19.77;100.00;100366.16;5072482;28;20036;-76
2023/10/31 09:12:04;;;;;;;1.95;1.27;;;;;;;20.24;100.00;100358.06;5073475;28;20074;-77
2023/10/31 09:14:29;;;;;;;2.88;2.17;;;;;;;19.62;100.00;100266.44;5073201;28;20043;-77
2023/10/31 09:16:55;;;;;;;4.22;3.85;;;;;;;20.62;100.00;100356.50;5072280;28;20456;-78
2023/10/31 09:19:20;;;;;;;4.95;3.15;;;;;;;19.67;100.00;100352.31;5072616;28;20044;-77
2023/10/31 09:21:46;;;;;;;5.47;3.20;;;;;;;20.51;100.00;100358.75;5071177;28;20537;-76
2023/10/31 09:24:11;;;;;;;6.40;4.47;;;;;;;19.72;100.00;100203.06;5059327;28;20045;-78
2023/10/31 09:26:37;;;;;;;6.75;4.18;;;;;;;21.09;100.00;100352.69;5053647;28;20083;-76
2023/10/31 09:29:04;;;;;;;5.85;3.58;;;;;;;20.49;100.00;100280.63;5051969;28;20095;-78
2023/10/31 09:31:29;;;;;;;4.07;3.17;;;;;;;20.92;100.00;100341.91;5022600;28;20106;-77
2023/10/31 09:33:55;;;;;;;2.55;2.35;;;;;;;19.91;100.00;100269.75;5052697;28;20045;-78
2023/10/31 09:36:20;;;;;;;2.63;2.42;;;;;;;20.45;100.00;100290.53;5052565;28;20461;-77
2023/10/31 09:42:07;;;;;;;1.65;0.98;;;;;;;20.71;100.00;100333.91;5050546;28;20095;-76
2023/10/31 09:44:34;;;;;;;1.00;0.82;;;;;;;20.83;100.00;100313.84;5032705;28;20029;-78
2023/10/31 09:47:01;;;;;;;1.85;1.75;;;;;;;21.05;100.00;100319.97;5032151;28;20049;-76
2023/10/31 09:49:26;;;;;;;3.75;2.30;;;;;;;21.05;100.00;100297.75;5031887;28;20098;-79
2023/10/31 09:55:15;;;;;;;1.17;1.08;;;;;;;20.82;100.00;100312.97;5032420;28;20053;-75
2023/10/31 09:57:40;;;;;;;3.45;3.15;;;;;;;20.28;100.00;100218.47;5031831;28;20095;-76
2023/10/31 10:00:06;;;;;;;5.32;2.42;;;;;;;21.31;100.00;100303.72;5030522;28;20025;-75
2023/10/31 10:02:32;;;;;;;2.08;1.65;;;;;;;20.97;100.00;100303.41;5046503;28;20074;-75
2023/10/31 10:08:20;;;;;;;2.80;2.63;;;;;;;20.42;100.00;100197.41;5052348;28;20048;-75
2023/10/31 10:14:09;;;;;;;2.80;2.33;;;;;;;21.62;100.00;100279.97;5030823;28;20048;-75
2023/10/31 10:16:35;;;;;;;4.18;2.55;;;;;;;21.07;100.00;100189.13;5031306;28;20037;-74
2023/10/31 10:19:21;;;;;;;5.78;1.02;;;;;;;21.58;100.00;100277.53;5030069;28;20081;-76
2023/10/31 10:21:58;;;;;;;1.23;1.13;;;;;;;21.40;100.00;100279.25;5030751;28;20025;-77
2023/10/31 10:24:25;;;;;;;12.57;4.13;;;;;;;21.42;100.00;100277.38;5038431;28;20056;-77
2023/10/31 10:26:52;;;;;;;2.92;2.53;;;;;;;21.54;100.00;100187.81;5032181;28;20034;-75
2023/10/31 10:29:17;;;;;;;2.90;2.17;;;;;;;22.28;100.00;100281.25;5031916;28;20549;-74
2023/10/31 10:31:47;;;;;;;1.55;1.38;;;;;;;22.36;100.00;100279.06;5031476;28;20108;-75
2023/10/31 10:34:16;;;;;;;2.75;2.15;;;;;;;21.85;100.00;100257.50;5031768;28;20036;-76
2023/10/31 10:40:07;;;;;;;1.75;0.90;;;;;;;21.39;96.19;100160.06;5039491;28;20516;-75
2023/10/31 10:42:36;;;;;;;1.48;1.30;;;;;;;22.22;95.96;100254.81;5055443;28;20037;-75
2023/10/31 10:45:04;;;;;;;1.95;1.75;;;;;;;21.71;98.20;100172.72;5055302;28;20021;-75
2023/10/31 10:47:32;;;;;;;4.47;1.58;;;;;;;22.25;100.00;100182.50;5037793;28;20036;-75
2023/10/31 10:50:03;;;;;;;0.93;0.77;;;;;;;21.93;92.47;100211.69;5055480;28;20044;-75
2023/10/31 10:52:36;;;;;;;13.50;2.65;;;;;;;22.01;95.55;100148.06;5055437;28;20048;-75
2023/10/31 10:58:10;;;;;;;3.05;2.85;;;;;;;22.26;88.31;100190.41;5055610;28;20009;-76
2023/10/31 11:00:37;;;;;;;1.73;1.48;;;;;;;22.25;92.02;100121.03;5038230;28;20033;-73
2023/10/31 11:03:03;;;;;;;2.65;1.73;;;;;;;22.30;87.12;100121.63;5055612;28;20471;-76
2023/10/31 11:08:48;;;;;;;1.95;1.48;;;;;;;22.90;85.62;100207.53;5055679;28;20095;-75
2023/10/31 11:11:16;;;;;;;5.93;4.07;;;;;;;22.35;91.33;100143.63;5038711;28;20136;-75
2023/10/31 11:13:43;;;;;;;3.90;2.78;;;;;;;22.29;90.58;100114.56;5033407;28;21041;-74
2023/10/31 11:22:58;;;;;;;0.90;0.75;;;;;;;22.88;90.39;100197.88;5054949;28;20132;-73
2023/10/31 11:25:24;;;;;;;4.90;3.38;;;;;;;22.90;85.22;100198.66;5040143;28;20067;-75
2023/10/31 11:27:53;;;;;;;3.15;1.90;;;;;;;22.93;88.44;100193.97;5074314;28;20064;-74
2023/10/31 11:30:52;;;;;;;1.10;0.82;;;;;;;23.02;80.25;100191.81;5058894;28;20440;-74
2023/10/31 11:33:21;;;;;;;3.20;1.58;;;;;;;22.65;82.86;100111.69;5064099;28;20036;-71
2023/10/31 11:39:20;;;;;;;1.90;1.70;;;;;;;22.82;78.71;100150.03;5075069;28;20039;-72
2023/10/31 11:41:52;;;;;;;4.68;2.80;;;;;;;22.80;80.26;100147.44;5075354;28;20028;-73
2023/10/31 11:44:18;;;;;;;0.40;0.38;;;;;;;22.66;80.38;100144.66;5073231;28;20040;-71
2023/10/31 11:50:06;;;;;;;10.07;3.40;;;;;;;22.52;85.75;100092.81;5070536;28;20062;-72
2023/10/31 11:52:31;;;;;;;1.92;1.77;;;;;;;22.85;83.27;100134.69;5068001;28;20036;-71
2023/10/31 11:54:57;;;;;;;4.32;3.33;;;;;;;22.48;79.92;100063.63;5054562;28;20364;-73
2023/10/31 11:57:28;;;;;;;1.95;1.80;;;;;;;22.55;78.94;100103.31;5049156;28;20123;-66
2023/10/31 12:03:26;;;;;;;3.55;2.00;;;;;;;22.85;89.88;100134.69;5054121;28;20071;-72
2023/10/31 12:09:13;;;;;;;1.15;1.02;;;;;;;22.50;85.45;100051.91;5074845;28;20085;-84
2023/10/31 12:11:52;;;;;;;3.20;2.58;;;;;;;22.86;82.20;100106.97;5075293;28;20119;-80
2023/10/31 12:14:20;;;;;;;1.60;1.50;;;;;;;22.46;83.04;100097.63;5074018;28;20044;-81
2023/10/31 12:16:47;;;;;;;0.77;0.77;;;;;;;22.82;82.30;100115.25;5053928;28;20045;-81
2023/10/31 12:19:12;;;;;;;1.02;0.93;;;;;;;22.72;81.43;100059.59;5054280;28;20033;-81
2023/10/31 12:25:08;;;;;;;0.30;0.30;;;;;;;22.86;82.61;100117.69;5051737;28;20444;-81
2023/10/31 12:27:52;;;;;;;1.05;1.05;;;;;;;22.73;82.61;100090.75;5035380;28;20288;-80
2023/10/31 12:30:19;;;;;;;0.35;0.25;;;;;;;22.40;83.01;100053.34;5053698;28;20115;-80
2023/10/31 12:39:56;;;;;;;4.68;1.38;;;;;;;22.92;80.48;100093.25;5054882;28;20094;-78
2023/10/31 12:42:23;;;;;;;5.32;3.88;;;;;;;22.83;81.55;100087.53;5054328;28;20040;-80
2023/10/31 12:44:55;;;;;;;1.85;1.58;;;;;;;22.87;78.84;100081.94;5052539;28;20103;-82
2023/10/31 12:47:24;;;;;;;1.95;1.35;;;;;;;22.81;79.06;100086.78;5035810;28;20037;-83
2023/10/31 12:50:09;;;;;;;2.08;1.90;;;;;;;21.64;77.13;99885.56;5065006;28;20052;-82
2023/10/31 12:52:54;;;;;;;1.40;1.30;;;;;;;22.19;78.21;99979.66;5073241;28;20067;-83
2023/10/31 12:55:21;;;;;;;2.63;1.45;;;;;;;22.71;79.09;100068.56;5073072;28;20109;-83
2023/10/31 12:57:48;;;;;;;4.13;1.85;;;;;;;22.42;77.92;100000.66;5068173;28;20048;-82
2023/10/31 13:00:24;;;;;;;2.13;1.90;;;;;;;22.89;78.28;100071.16;5069465;28;20368;-84
2023/10/31 13:02:51;;;;;;;0.63;0.63;;;;;;;22.38;78.74;99993.75;5067036;28;20082;-83
2023/10/31 13:05:17;;;;;;;1.17;1.08;;;;;;;22.59;77.71;100023.78;5088789;28;20372;-81
2023/10/31 13:11:54;;;;;;;2.70;1.65;;;;;;;22.77;79.75;100059.34;5041942;28;20099;-84
2023/10/31 13:14:45;;;;;;;2.63;1.55;;;;;;;22.52;81.72;100057.16;5053731;28;20430;-83
2023/10/31 13:17:11;;;;;;;2.00;1.88;;;;;;;22.40;81.26;100031.97;5050157;28;20072;-82
2023/10/31 13:19:37;;;;;;;3.13;2.67;;;;;;;22.49;79.07;100028.78;5052395;28;20404;-81
2023/10/31 13:22:02;;;;;;;3.53;3.25;;;;;;;22.71;77.97;100039.16;5052478;28;20053;-81
2023/10/31 13:24:28;;;;;;;2.30;1.30;;;;;;;22.71;80.84;100040.94;5047544;28;20501;-80
2023/10/31 13:30:17;;;;;;;3.03;1.42;;;;;;;22.26;78.69;99924.94;5032846;28;20531;-81
2023/10/31 13:32:43;;;;;;;2.33;2.17;;;;;;;22.72;80.56;100002.56;5037497;28;20381;-82
2023/10/31 13:35:12;;;;;;;1.65;1.10;;;;;;;22.51;80.53;99965.38;5019372;28;20401;-81
2023/10/31 13:37:38;;;;;;;1.50;1.40;;;;;;;22.79;81.59;100019.97;5026346;28;20408;-81
2023/10/31 13:40:08;;;;;;;7.07;2.25;;;;;;;22.55;84.90;100014.22;5052451;28;20037;-82
2023/10/31 13:42:34;;;;;;;1.23;1.05;;;;;;;22.54;85.53;99993.75;5052522;28;20029;-81
2023/10/31 13:44:59;;;;;;;1.35;0.82;;;;;;;22.07;87.09;99944.63;5052667;28;20029;-80
2023/10/31 13:47:25;;;;;;;4.53;1.85;;;;;;;22.40;87.59;99980.31;5035906;28;20029;-81
2023/10/31 13:49:51;;;;;;;2.10;1.90;;;;;;;21.89;88.49;99916.25;5032938;28;20036;-81
2023/10/31 13:52:17;;;;;;;0.57;0.52;;;;;;;22.04;86.30;99941.28;5014895;28;20396;-81
2023/10/31 13:58:05;;;;;;;5.07;2.28;;;;;;;22.06;90.10;99961.63;5033097;28;20107;-81
2023/10/31 14:00:30;;;;;;;1.77;1.17;;;;;;;21.54;92.53;99889.69;5014314;28;20042;-81
2023/10/31 14:02:56;;;;;;;5.78;2.92;;;;;;;21.59;93.01;99898.31;5032526;28;20025;-80
2023/10/31 14:05:22;;;;;;;2.38;2.05;;;;;;;21.70;95.23;99916.41;5032577;28;20053;-82
2023/10/31 14:11:09;;;;;;;1.83;1.35;;;;;;;21.87;97.08;99955.56;5032789;28;20108;-82
2023/10/31 14:13:36;;;;;;;2.58;2.22;;;;;;;20.97;99.07;99819.72;5031781;28;20120;-82
2023/10/31 14:16:02;;;;;;;1.42;1.33;;;;;;;21.41;100.00;99901.94;5032066;28;20044;-78
2023/10/31 14:18:28;;;;;;;4.40;2.88;;;;;;;21.58;100.00;99939.28;5032027;28;20035;-78
2023/10/31 14:24:15;;;;;;;1.02;0.95;;;;;;;21.02;100.00;99895.91;5031801;28;20048;-80
2023/10/31 14:26:42;;;;;;;0.88;0.82;;;;;;;20.71;99.90;99840.63;5033052;28;20033;-79
2023/10/31 14:29:08;;;;;;;1.85;1.38;;;;;;;21.12;100.00;99904.31;5035449;28;20491;-78
2023/10/31 14:31:41;;;;;;;2.30;1.70;;;;;;;21.04;100.00;99919.84;5051226;28;20040;-80
2023/10/31 14:34:07;;;;;;;;;;;;;;;21.00;100.00;99913.81;5033924;28;20033;-79
2023/10/31 14:36:33;;;;;;;4.03;2.70;;;;;;;21.21;100.00;99953.66;5061308;28;19908;-79
2023/10/31 14:38:58;;;;;;;8.95;3.72;;;;;;;20.99;100.00;99924.56;5065122;28;20031;-80
2023/10/31 14:45:17;;;;;;;3.60;2.05;;;;;;;20.83;100.00;99940.47;5052489;28;20040;-79
2023/10/31 14:47:42;;;;;;;3.88;2.67;;;;;;;19.93;100.00;99832.00;5044206;28;20033;-79
2023/10/31 14:50:08;;;;;;;2.10;1.90;;;;;;;20.29;100.00;99851.59;5043911;28;20076;-78
2023/10/31 14:52:34;;;;;;;1.77;1.65;;;;;;;20.67;100.00;99889.69;5044070;28;20064;-79
2023/10/31 14:55:12;;;;;;;3.60;3.22;;;;;;;20.49;100.00;99882.59;5058915;28;20037;-79
2023/10/31 14:58:18;;;;;;;1.83;1.73;;;;;;;20.57;100.00;99921.28;5054613;28;20056;-79
2023/10/31 15:00:44;;;;;;;1.83;1.63;;;;;;;19.96;100.00;99860.28;5042972;28;20041;-79
2023/10/31 15:03:09;;;;;;;7.13;2.85;;;;;;;20.05;100.00;99906.94;5042927;28;20042;-80
2023/10/31 15:05:35;;;;;;;1.52;1.42;;;;;;;20.07;100.00;99926.38;5044922;28;20022;-81
2023/10/31 15:11:22;;;;;;;3.08;2.10;;;;;;;19.14;100.00;99829.41;5048207;28;20132;-81
2023/10/31 15:17:10;;;;;;;2.65;2.42;;;;;;;19.57;100.00;99923.28;5040228;28;20540;-82
2023/10/31 15:19:35;;;;;;;1.42;1.33;;;;;;;19.28;100.00;99879.31;5032165;28;20041;-84
2023/10/31 15:22:01;;;;;;;6.82;6.13;;;;;;;19.63;100.00;99938.09;5031914;28;20048;-82
2023/10/31 15:24:30;;;;;;;6.00;5.50;;;;;;;19.54;100.00;99936.69;5031470;28;20159;-82
2023/10/31 15:30:17;;;;;;;2.55;2.35;;;;;;;19.11;100.00;99857.94;5035154;28;20366;-82
2023/10/31 15:32:43;;;;;;;4.28;3.88;;;;;;;19.49;100.00;99925.41;5016807;28;20045;-81
2023/10/31 15:35:08;;;;;;;3.05;2.80;;;;;;;18.95;100.00;99849.78;5034648;28;20025;-82
2023/10/31 15:37:35;;;;;;;3.50;3.17;;;;;;;19.11;100.00;99882.75;5034162;28;20096;-82
2023/10/31 15:40:01;;;;;;;4.80;2.78;;;;;;;19.12;100.00;99891.56;5016527;28;20034;-81